Airfield :







YOU CAN JOIN US ON...

 
LOGIN :

Register | Disclaimer

   EN    FR    IT 

 









Legend :    VFR   Marginal VFR   IFR   Intensive IFR   Very Intensive IFR
Visi :
Ceiling :
>= 8 km
>= 3000ft
5 to 8 km
1000 to 3000 ft
1500m to 5 km
500 to 1000 ft
800 to 1500m
200 to 500 ft
< 800m
< 200 ft
Symbols :   Thunderstorms  Fog  Heavy snow  Heavy precipitations  Wind > 20 kt







- Airport Elevation : 133 ft
- IATA code : BED


KBED - Laurence G Hanscom Field

CURRENT METAR :
  • 220456Z AUTO 07006KT 10SM OVC013 05/01 A2979 RMK AO2 SLP101 T00500011 401111022

EXPIRED METARs :
  • 220356Z AUTO 07006KT 10SM OVC014 05/01 A2981 RMK AO2 SLP109 T00500011
  • 220328Z AUTO 08008KT 10SM OVC014 05/01 A2984 RMK AO2 T00500011
  • 220256Z AUTO 10009KT 10SM OVC017 05/01 A2987 RMK AO2 SLP130 T00500006 58032

TAF KBED
Valid from the 22 at 06:00 until the 23 at 06:00 UTC


220537Z 2206/2306 06008KT P6SM -SHRA OVC010
FM221100 04009KT 2SM -SHRA BR OVC008
FM221500 35006KT 4SM -SHRA OVC008
FM221700 29006KT 5SM -SHRA OVC008
FM222000 28009KT P6SM OVC008
FM222300 26011G25KT P6SM VCSH OVC025
FM230500 26013G24KT P6SM -SHSN OVC025
KZBW FIR / North America



MET'MAP, your aeronautical weather chart ! - Copyright ORBIFLY December 2007 - Disclaimer

ORBIFLY MET'MAP TEAM :

Programming & Development : Alexandra Zaïnal
Concept & Development : Baudouin d'Aumeries
Co-Development & Prog : Marc-Olivier Méhu
Technical & hardware support : Manuel Goepfert

Contact : metmap@orbifly.com




SOURCES & CREDITS :

   NOAA